createdAt,value
2018-09-18T00:01:19.749Z,60.49
2018-09-18T00:03:57.978Z,60.91
2018-09-18T00:06:32.526Z,60.27
2018-09-18T00:09:12.427Z,60.45
2018-09-18T00:11:51.197Z,61.10
2018-09-18T00:14:30.233Z,60.69
2018-09-18T00:17:06.592Z,61.07
2018-09-18T00:19:46.815Z,61.23
2018-09-18T00:22:23.200Z,60.64
2018-09-18T00:24:59.711Z,61.35
2018-09-18T00:27:36.266Z,61.22
2018-09-18T00:30:06.725Z,61.49
2018-09-18T00:32:36.219Z,62.05
2018-09-18T00:35:06.261Z,61.76
2018-09-18T00:37:35.638Z,61.89
2018-09-18T00:40:05.277Z,61.89
2018-09-18T00:42:34.695Z,61.99
2018-09-18T00:45:04.164Z,61.65
2018-09-18T00:47:33.476Z,61.90
2018-09-18T00:50:02.811Z,62.05
2018-09-18T00:52:39.207Z,61.69
2018-09-18T00:55:08.563Z,62.29
2018-09-18T00:57:37.899Z,62.12
2018-09-18T01:00:08.168Z,62.04
2018-09-18T01:02:37.566Z,62.25
2018-09-18T01:05:07.309Z,62.92
2018-09-18T01:07:36.703Z,62.38
2018-09-18T01:10:06.534Z,62.07
2018-09-18T01:12:35.876Z,62.87
2018-09-18T01:15:05.363Z,62.68
2018-09-18T01:17:35.330Z,62.80
2018-09-18T01:20:04.749Z,61.95
2018-09-18T01:22:34.079Z,62.88
2018-09-18T01:25:03.418Z,62.70
2018-09-18T01:27:32.831Z,62.58
2018-09-18T01:30:02.718Z,62.65
2018-09-18T01:32:32.166Z,62.52
2018-09-18T01:35:01.607Z,62.47
2018-09-18T01:37:31.720Z,62.62
2018-09-18T01:40:01.348Z,62.99
2018-09-18T01:42:30.820Z,63.12
2018-09-18T01:45:00.245Z,62.88
2018-09-18T01:47:29.583Z,62.68
2018-09-18T01:49:59.000Z,62.82
2018-09-18T01:52:28.414Z,63.22
2018-09-18T01:54:57.805Z,63.00
2018-09-18T01:57:27.431Z,62.94
2018-09-18T01:59:56.849Z,63.26
2018-09-18T02:02:26.233Z,63.13
2018-09-18T02:04:55.625Z,62.81
2018-09-18T02:07:24.987Z,62.63
2018-09-18T02:09:54.362Z,63.18
2018-09-18T02:12:23.741Z,63.41
2018-09-18T02:14:53.085Z,63.00
2018-09-18T02:17:22.476Z,62.70
2018-09-18T02:19:53.012Z,63.32
2018-09-18T02:22:22.439Z,62.92
2018-09-18T02:24:51.793Z,63.37
2018-09-18T02:27:21.929Z,62.58
2018-09-18T02:29:51.390Z,62.82
2018-09-18T02:32:20.742Z,63.35
2018-09-18T02:34:50.113Z,63.21
2018-09-18T02:37:19.508Z,63.14
2018-09-18T02:39:48.890Z,63.72
2018-09-18T02:42:18.753Z,63.14
2018-09-18T02:44:48.120Z,63.61
2018-09-18T02:47:18.172Z,64.22
2018-09-18T02:49:47.667Z,64.25
2018-09-18T02:52:18.297Z,63.30
2018-09-18T02:54:47.686Z,63.93
2018-09-18T02:57:17.322Z,63.89
2018-09-18T02:59:46.683Z,64.12
2018-09-18T03:02:16.073Z,63.86
2018-09-18T03:04:45.444Z,64.18
2018-09-18T03:07:14.810Z,64.29
2018-09-18T03:09:44.150Z,64.22
2018-09-18T03:12:13.500Z,64.61
2018-09-18T03:14:42.905Z,64.83
2018-09-18T03:17:12.280Z,64.87
2018-09-18T03:19:41.712Z,64.61
2018-09-18T03:22:11.229Z,64.63
2018-09-18T03:24:40.605Z,64.70
2018-09-18T03:27:10.089Z,64.65
2018-09-18T03:29:39.374Z,64.83
2018-09-18T03:32:08.802Z,64.89
2018-09-18T03:34:38.219Z,65.06
2018-09-18T03:37:07.634Z,64.83
2018-09-18T03:39:36.964Z,64.82
2018-09-18T03:42:06.323Z,64.97
2018-09-18T03:44:35.738Z,64.57
2018-09-18T03:47:06.358Z,64.65
2018-09-18T03:49:35.850Z,64.64
2018-09-18T03:52:06.360Z,64.83
2018-09-18T03:54:35.832Z,64.49
2018-09-18T03:57:06.025Z,65.02
2018-09-18T03:59:35.377Z,64.98
2018-09-18T04:02:06.001Z,64.90
2018-09-18T04:04:35.389Z,65.32
2018-09-18T04:07:05.068Z,65.45
2018-09-18T04:09:34.409Z,65.31
2018-09-18T04:12:03.863Z,64.77
2018-09-18T04:14:33.202Z,65.56
2018-09-18T04:17:02.714Z,64.91
2018-09-18T04:19:32.144Z,65.01
2018-09-18T04:22:01.620Z,65.26
2018-09-18T04:24:31.167Z,65.28
2018-09-18T04:27:00.546Z,65.28
2018-09-18T04:29:29.893Z,65.19
2018-09-18T04:31:59.287Z,65.19
2018-09-18T04:34:28.692Z,65.17
2018-09-18T04:36:58.045Z,65.61
2018-09-18T04:39:27.543Z,65.18
2018-09-18T04:41:56.878Z,65.59
2018-09-18T04:44:26.298Z,65.56
2018-09-18T04:46:55.637Z,65.63
2018-09-18T04:49:25.117Z,65.57
2018-09-18T04:51:54.458Z,66.30
2018-09-18T04:54:23.835Z,66.50
2018-09-18T04:56:53.267Z,66.03
2018-09-18T04:59:22.609Z,66.52
2018-09-18T05:01:51.987Z,66.41
2018-09-18T05:04:21.646Z,66.38
2018-09-18T05:06:51.023Z,66.78
2018-09-18T05:09:20.409Z,66.70
2018-09-18T05:11:49.802Z,66.49
2018-09-18T05:14:19.166Z,66.31
2018-09-18T05:16:48.524Z,66.05
2018-09-18T05:19:17.938Z,66.82
2018-09-18T05:21:47.285Z,66.18
2018-09-18T05:24:17.649Z,65.98
2018-09-18T05:26:47.002Z,66.58
2018-09-18T05:29:16.733Z,66.40
2018-09-18T05:31:46.741Z,66.60
2018-09-18T05:34:16.093Z,66.19
2018-09-18T05:36:45.466Z,66.40
2018-09-18T05:39:14.810Z,66.61
2018-09-18T05:41:44.159Z,66.88
2018-09-18T05:44:13.541Z,66.54
2018-09-18T05:46:42.962Z,66.54
2018-09-18T05:49:12.333Z,66.07
2018-09-18T05:51:41.681Z,66.33
2018-09-18T05:54:11.135Z,66.22
2018-09-18T05:56:40.660Z,65.75
2018-09-18T05:59:10.066Z,66.04
2018-09-18T06:01:39.409Z,65.62
2018-09-18T06:04:08.794Z,65.40
2018-09-18T06:06:38.312Z,65.91
2018-09-18T06:09:10.456Z,66.00
2018-09-18T06:11:39.827Z,66.11
2018-09-18T06:14:09.434Z,65.97
2018-09-18T06:16:38.825Z,65.51
2018-09-18T06:19:08.265Z,65.36
2018-09-18T06:21:37.601Z,65.25
2018-09-18T06:24:06.928Z,64.97
2018-09-18T06:26:36.385Z,64.87
2018-09-18T06:29:06.422Z,64.59
2018-09-18T06:31:35.764Z,64.49
2018-09-18T06:34:05.993Z,64.31
2018-09-18T06:36:35.353Z,64.47
2018-09-18T06:39:09.549Z,63.86
2018-09-18T06:41:39.033Z,63.12
2018-09-18T06:44:08.514Z,63.25
2018-09-18T06:46:37.952Z,63.48
2018-09-18T06:49:07.416Z,63.05
2018-09-18T06:51:36.758Z,63.04
2018-09-18T06:54:06.478Z,63.17
2018-09-18T06:56:35.828Z,63.11
2018-09-18T06:59:06.615Z,62.86
2018-09-18T07:01:36.014Z,63.15
2018-09-18T07:04:06.145Z,62.36
2018-09-18T07:06:35.456Z,63.17
2018-09-18T07:09:05.990Z,62.39
2018-09-18T07:11:35.468Z,62.87
2018-09-18T07:14:04.878Z,62.26
2018-09-18T07:16:34.270Z,62.27
2018-09-18T07:19:05.852Z,61.45
2018-09-18T07:21:35.347Z,61.61
2018-09-18T07:24:05.963Z,60.83
2018-09-18T07:26:35.318Z,60.74
2018-09-18T07:29:04.713Z,61.27
2018-09-18T07:31:34.103Z,60.92
2018-09-18T07:34:03.502Z,60.46
2018-09-18T07:36:32.856Z,59.61
2018-09-18T07:39:02.317Z,60.13
2018-09-18T07:41:32.686Z,59.29
2018-09-18T07:44:02.054Z,59.05
2018-09-18T07:46:31.460Z,58.83
2018-09-18T07:49:03.613Z,59.26
2018-09-18T07:51:33.991Z,58.52
2018-09-18T07:54:03.725Z,57.75
2018-09-18T07:56:33.114Z,57.46
2018-09-18T07:59:03.036Z,57.49
2018-09-18T08:01:32.976Z,56.29
2018-09-18T08:04:03.253Z,56.32
2018-09-18T08:06:33.414Z,56.53
2018-09-18T08:09:02.842Z,55.73
2018-09-18T08:11:32.162Z,55.93
2018-09-18T08:14:01.566Z,55.56
2018-09-18T08:16:30.910Z,55.35
2018-09-18T08:19:00.451Z,55.07
2018-09-18T08:21:29.691Z,54.67
2018-09-18T08:23:59.036Z,54.40
2018-09-18T08:26:28.424Z,53.34
2018-09-18T08:28:57.764Z,53.51
2018-09-18T08:31:27.457Z,53.66
2018-09-18T08:33:57.045Z,53.60
2018-09-18T08:36:26.403Z,52.67
2018-09-18T08:38:55.797Z,53.17
2018-09-18T08:41:25.167Z,52.60
2018-09-18T08:43:55.243Z,51.60
2018-09-18T08:46:24.644Z,51.62
2018-09-18T08:48:56.409Z,51.37
2018-09-18T08:51:26.342Z,50.17
2018-09-18T08:53:55.782Z,49.87
2018-09-18T08:56:25.376Z,50.09
2018-09-18T08:58:55.474Z,49.28
2018-09-18T09:01:24.939Z,48.65
2018-09-18T09:03:54.362Z,49.10
2018-09-18T09:06:24.910Z,48.75
2018-09-18T09:08:55.597Z,47.96
2018-09-18T09:11:24.918Z,47.67
2018-09-18T09:13:54.327Z,46.90
2018-09-18T09:16:24.364Z,46.58
2018-09-18T09:18:53.706Z,46.13
2018-09-18T09:21:23.144Z,45.25
2018-09-18T09:23:53.757Z,45.55
2018-09-18T09:26:23.169Z,45.29
2018-09-18T09:28:52.465Z,44.37
2018-09-18T09:31:21.986Z,44.69
2018-09-18T09:33:52.357Z,43.14
2018-09-18T09:36:21.776Z,42.17
2018-09-18T09:38:52.043Z,41.97
2018-09-18T09:41:21.449Z,41.62
2018-09-18T09:43:50.904Z,41.38
2018-09-18T09:46:20.453Z,41.91
2018-09-18T09:48:49.895Z,41.63
2018-09-18T09:51:19.402Z,40.97
2018-09-18T09:53:48.706Z,41.62
2018-09-18T09:56:18.098Z,40.85
2018-09-18T09:58:47.449Z,40.64
2018-09-18T10:01:22.095Z,41.21
2018-09-18T10:03:51.552Z,40.49
2018-09-18T10:06:20.998Z,41.75
2018-09-18T10:08:50.406Z,40.52
2018-09-18T10:11:20.090Z,41.10
2018-09-18T10:13:51.441Z,41.60
2018-09-18T10:16:20.858Z,41.45
2018-09-18T10:18:50.252Z,40.64
2018-09-18T10:21:19.642Z,40.95
2018-09-18T10:23:49.057Z,40.65
2018-09-18T10:26:18.618Z,40.90
2018-09-18T10:28:47.912Z,40.49
2018-09-18T10:31:17.386Z,39.97
2018-09-18T10:33:46.817Z,39.85
2018-09-18T10:36:16.343Z,39.77
2018-09-18T10:38:46.836Z,40.76
2018-09-18T10:41:16.411Z,39.59
2018-09-18T10:43:45.578Z,39.65
2018-09-18T10:46:15.033Z,40.26
2018-09-18T10:48:50.386Z,39.96
2018-09-18T10:51:19.907Z,40.54
2018-09-18T10:53:49.301Z,39.80
2018-09-18T10:56:18.698Z,39.95
2018-09-18T10:58:48.124Z,41.12
2018-09-18T11:01:17.740Z,41.38
2018-09-18T11:03:47.204Z,40.03
2018-09-18T11:06:16.602Z,40.43
2018-09-18T11:08:46.026Z,40.90
2018-09-18T11:11:15.543Z,40.15
2018-09-18T11:13:44.922Z,40.41
2018-09-18T11:16:14.482Z,40.25
2018-09-18T11:18:43.783Z,39.95
2018-09-18T11:21:13.346Z,40.01
2018-09-18T11:23:42.699Z,40.29
2018-09-18T11:26:12.161Z,39.98
2018-09-18T11:28:41.648Z,39.23
2018-09-18T11:31:11.125Z,39.86
2018-09-18T11:33:41.613Z,39.34
2018-09-18T11:36:11.107Z,39.97
2018-09-18T11:38:40.514Z,39.56
2018-09-18T11:41:10.013Z,38.25
2018-09-18T11:43:39.496Z,38.14
2018-09-18T11:46:08.930Z,38.22
2018-09-18T11:48:38.286Z,37.90
2018-09-18T11:51:07.703Z,36.64
2018-09-18T11:53:37.129Z,36.79
2018-09-18T11:56:07.391Z,36.24
2018-09-18T11:58:36.789Z,35.76
2018-09-18T12:01:06.799Z,35.41
2018-09-18T12:03:36.195Z,33.91
2018-09-18T12:06:06.226Z,33.21
2018-09-18T12:08:35.651Z,33.92
2018-09-18T12:11:06.261Z,33.08
2018-09-18T12:13:35.690Z,32.92
2018-09-18T12:16:06.462Z,31.96
2018-09-18T12:18:36.479Z,31.35
2018-09-18T12:21:07.600Z,31.19
2018-09-18T12:23:37.010Z,30.46
2018-09-18T12:26:06.404Z,30.42
2018-09-18T12:28:35.903Z,31.30
2018-09-18T12:31:06.379Z,30.13
2018-09-18T12:33:35.822Z,30.13
2018-09-18T12:36:07.020Z,29.69
2018-09-18T12:38:36.669Z,29.85
2018-09-18T12:41:06.542Z,30.23
2018-09-18T12:43:46.198Z,29.74
2018-09-18T12:46:15.680Z,30.83
2018-09-18T12:48:45.172Z,28.99
2018-09-18T12:51:15.173Z,29.44
2018-09-18T12:53:44.642Z,29.89
2018-09-18T12:56:14.142Z,30.77
2018-09-18T12:58:43.494Z,29.86
2018-09-18T13:01:12.882Z,29.54
2018-09-18T13:03:42.311Z,30.33
2018-09-18T13:06:11.897Z,30.26
2018-09-18T13:08:41.206Z,30.75
2018-09-18T13:11:10.609Z,29.89
2018-09-18T13:13:40.018Z,30.54
2018-09-18T13:16:09.472Z,30.42
2018-09-18T13:18:39.399Z,30.04
2018-09-18T13:21:08.834Z,29.96
2018-09-18T13:23:38.877Z,30.33
2018-09-18T13:26:08.627Z,30.12
2018-09-18T13:28:38.157Z,29.04
2018-09-18T13:31:07.703Z,28.25
2018-09-18T13:33:37.122Z,28.29
2018-09-18T13:36:06.811Z,29.22
2018-09-18T13:38:36.139Z,28.74
2018-09-18T13:41:06.410Z,28.83
2018-09-18T13:43:35.604Z,28.14
2018-09-18T13:46:06.336Z,28.06
2018-09-18T13:48:35.675Z,27.95
2018-09-18T13:51:06.321Z,28.36
2018-09-18T13:53:35.716Z,27.19
2018-09-18T13:56:07.765Z,27.79
2018-09-18T13:58:37.109Z,28.18
2018-09-18T14:01:06.491Z,28.69
2018-09-18T14:03:35.802Z,27.41
2018-09-18T14:06:06.342Z,26.92
2018-09-18T14:08:35.825Z,26.55
2018-09-18T14:11:06.526Z,26.54
2018-09-18T14:13:35.948Z,25.95
2018-09-18T14:16:06.442Z,26.91
2018-09-18T14:18:35.834Z,26.86
2018-09-18T14:21:06.090Z,26.51
2018-09-18T14:23:35.629Z,26.42
2018-09-18T14:26:05.154Z,26.98
2018-09-18T14:28:36.982Z,26.03
2018-09-18T14:31:06.913Z,26.44
2018-09-18T14:33:36.496Z,27.25
2018-09-18T14:36:06.851Z,26.85
2018-09-18T14:38:40.618Z,26.96
2018-09-18T14:41:10.178Z,27.06
2018-09-18T14:43:40.327Z,26.42
2018-09-18T14:46:10.311Z,26.49
2018-09-18T14:48:39.782Z,25.32
2018-09-18T14:51:09.324Z,25.48
2018-09-18T14:53:38.721Z,25.63
2018-09-18T14:56:08.370Z,26.29
2018-09-18T14:58:37.958Z,26.35
2018-09-18T15:01:07.436Z,25.39
2018-09-18T15:03:36.842Z,24.97
2018-09-18T15:06:06.748Z,24.96
2018-09-18T15:08:37.101Z,25.47
2018-09-18T15:11:07.595Z,26.48
2018-09-18T15:13:37.433Z,26.87
2018-09-18T15:16:07.546Z,26.07
2018-09-18T15:18:37.067Z,26.54
2018-09-18T15:21:06.561Z,25.99
2018-09-18T15:23:36.185Z,25.38
2018-09-18T15:26:06.222Z,25.50
2018-09-18T15:28:36.577Z,25.16
2018-09-18T15:31:11.023Z,25.36
2018-09-18T15:33:42.580Z,25.42
2018-09-18T15:36:11.989Z,26.86
2018-09-18T15:38:41.549Z,26.67
2018-09-18T15:41:10.940Z,26.02
2018-09-18T15:43:40.645Z,26.86
2018-09-18T15:46:10.244Z,27.44
2018-09-18T15:48:39.758Z,27.10
2018-09-18T15:51:09.393Z,27.01
2018-09-18T15:53:39.610Z,27.19
2018-09-18T15:56:09.119Z,27.53
2018-09-18T15:58:38.770Z,27.97
2018-09-18T16:01:08.599Z,29.10
2018-09-18T16:03:39.438Z,29.16
2018-09-18T16:06:09.412Z,30.97
2018-09-18T16:08:38.962Z,30.71
2018-09-18T16:11:08.432Z,30.50
2018-09-18T16:13:38.905Z,31.30
2018-09-18T16:16:09.014Z,31.76
2018-09-18T16:18:38.486Z,31.86
2018-09-18T16:21:07.912Z,31.47
2018-09-18T16:23:38.268Z,30.92
2018-09-18T16:26:07.742Z,31.81
2018-09-18T16:28:37.330Z,30.97
2018-09-18T16:31:06.890Z,31.31
2018-09-18T16:33:36.603Z,32.58
2018-09-18T16:36:07.284Z,32.97
2018-09-18T16:38:37.605Z,33.88
2018-09-18T16:41:08.165Z,34.38
2018-09-18T16:43:37.696Z,34.50
2018-09-18T16:46:09.935Z,34.22
2018-09-18T16:48:40.039Z,34.47
2018-09-18T16:51:10.117Z,35.38
2018-09-18T16:53:39.824Z,36.57
2018-09-18T16:56:09.323Z,37.82
2018-09-18T16:58:42.227Z,39.29
2018-09-18T17:01:11.859Z,39.36
2018-09-18T17:03:41.524Z,40.63
2018-09-18T17:06:11.490Z,42.49
2018-09-18T17:08:48.376Z,44.54
2018-09-18T17:11:18.347Z,47.11
2018-09-18T17:13:50.198Z,48.26
2018-09-18T17:16:20.655Z,49.38
2018-09-18T17:18:53.047Z,50.73
2018-09-18T17:21:23.349Z,50.98
2018-09-18T17:23:53.176Z,52.32
2018-09-18T17:26:22.786Z,53.38
2018-09-18T17:31:49.022Z,54.48
2018-09-18T17:34:18.541Z,55.84
2018-09-18T17:36:48.051Z,56.21
2018-09-18T17:39:17.542Z,56.68
2018-09-18T17:41:47.359Z,56.96
2018-09-18T17:44:16.894Z,57.15
2018-09-18T17:46:50.382Z,58.05
2018-09-18T17:49:20.820Z,57.60
2018-09-18T17:51:50.468Z,58.48
2018-09-18T17:54:20.101Z,59.03
2018-09-18T17:56:50.312Z,58.55
2018-09-18T17:59:20.990Z,59.47
2018-09-18T18:01:51.572Z,59.77
2018-09-18T18:04:21.198Z,60.21
2018-09-18T18:06:50.866Z,60.04
2018-09-18T18:11:56.739Z,60.38
2018-09-18T18:14:26.929Z,60.96
2018-09-18T18:16:56.973Z,61.18
2018-09-18T18:19:27.663Z,60.89
2018-09-18T18:21:57.855Z,61.01
2018-09-18T18:24:27.674Z,61.58
2018-09-18T18:26:57.173Z,61.43
2018-09-18T18:29:27.968Z,61.38
2018-09-18T18:32:00.082Z,62.36
2018-09-18T18:34:31.874Z,62.46
2018-09-18T18:37:01.594Z,62.78
2018-09-18T18:39:31.092Z,62.79
2018-09-18T18:42:02.556Z,62.86
2018-09-18T18:44:32.819Z,62.31
2018-09-18T18:47:02.361Z,62.25
2018-09-18T18:49:36.863Z,62.11
2018-09-18T18:52:06.903Z,62.18
2018-09-18T18:54:36.587Z,62.22
2018-09-18T18:57:06.576Z,62.08
2018-09-18T18:59:35.969Z,62.76
2018-09-18T19:02:06.463Z,61.77
2018-09-18T19:04:35.866Z,62.53
2018-09-18T19:07:06.213Z,61.50
2018-09-18T19:09:35.668Z,61.61
2018-09-18T19:12:07.552Z,62.25
2018-09-18T19:14:37.010Z,61.87
2018-09-18T19:17:07.461Z,61.12
2018-09-18T19:19:37.703Z,61.09
2018-09-18T19:22:07.576Z,61.96
2018-09-18T19:24:37.259Z,61.35
2018-09-18T19:27:06.808Z,61.69
2018-09-18T19:29:36.288Z,62.26
2018-09-18T19:32:06.155Z,62.25
2018-09-18T19:34:36.243Z,62.05
2018-09-18T19:37:06.200Z,62.43
2018-09-18T19:39:36.334Z,62.02
2018-09-18T19:42:10.690Z,62.10
2018-09-18T19:44:40.108Z,62.54
2018-09-18T19:47:09.870Z,62.94
2018-09-18T19:49:41.337Z,62.43
2018-09-18T19:52:11.781Z,62.92
2018-09-18T19:54:41.785Z,63.05
2018-09-18T19:57:11.382Z,63.15
2018-09-18T19:59:40.761Z,63.67
2018-09-18T20:02:10.226Z,63.98
2018-09-18T20:04:40.824Z,63.68
2018-09-18T20:07:10.283Z,64.28
2018-09-18T20:09:39.693Z,64.13
2018-09-18T20:12:09.138Z,64.71
2018-09-18T20:14:38.664Z,63.70
2018-09-18T20:17:08.145Z,64.34
2018-09-18T20:19:37.653Z,64.90
2018-09-18T20:22:08.986Z,64.91
2018-09-18T20:24:38.409Z,65.57
2018-09-18T20:27:08.888Z,66.32
2018-09-18T20:29:38.656Z,65.64
2018-09-18T20:32:10.972Z,66.08
2018-09-18T20:34:41.076Z,66.74
2018-09-18T20:37:11.663Z,66.19
2018-09-18T20:39:41.085Z,65.87
2018-09-18T20:42:10.657Z,66.46
2018-09-18T20:44:40.076Z,66.93
2018-09-18T20:47:09.439Z,66.31
2018-09-18T20:49:38.865Z,67.34
2018-09-18T20:52:08.353Z,66.59
2018-09-18T20:54:37.841Z,67.38
2018-09-18T20:57:07.822Z,67.38
2018-09-18T20:59:37.300Z,67.26
2018-09-18T21:02:07.489Z,67.41
2018-09-18T21:04:36.961Z,67.20
2018-09-18T21:07:06.343Z,67.96
2018-09-18T21:09:35.781Z,67.65
2018-09-18T21:12:06.710Z,68.03
2018-09-18T21:14:36.091Z,67.95
2018-09-18T21:17:06.239Z,67.96
2018-09-18T21:19:36.444Z,68.56
2018-09-18T21:22:07.807Z,68.95
2018-09-18T21:24:37.167Z,69.03
2018-09-18T21:27:06.835Z,69.04
2018-09-18T21:29:36.285Z,68.44
2018-09-18T21:32:06.454Z,69.09
2018-09-18T21:34:35.971Z,68.46
2018-09-18T21:37:06.416Z,68.81
2018-09-18T21:39:35.991Z,69.77
2018-09-18T21:42:06.419Z,68.92
2018-09-18T21:44:36.273Z,69.43
2018-09-18T21:47:06.821Z,69.92
2018-09-18T21:49:36.218Z,70.47
2018-09-18T21:52:06.718Z,70.76
2018-09-18T21:54:36.101Z,70.42
2018-09-18T21:57:06.271Z,70.48
2018-09-18T21:59:35.662Z,71.35
2018-09-18T22:02:06.273Z,70.82
2018-09-18T22:04:35.704Z,71.75
2018-09-18T22:07:06.494Z,71.01
2018-09-18T22:09:36.596Z,71.04
2018-09-18T22:12:06.498Z,71.31
2018-09-18T22:14:36.097Z,72.68
2018-09-18T22:17:06.150Z,72.61
2018-09-18T22:19:35.497Z,73.07
2018-09-18T22:22:06.285Z,72.15
2018-09-18T22:24:37.213Z,72.41
2018-09-18T22:27:06.754Z,72.82
2018-09-18T22:29:36.106Z,72.75
2018-09-18T22:32:07.081Z,72.66
2018-09-18T22:34:36.629Z,72.56
2018-09-18T22:37:07.451Z,72.28
2018-09-18T22:39:36.832Z,72.75
2018-09-18T22:42:07.066Z,72.55
2018-09-18T22:44:36.447Z,71.90
2018-09-18T22:47:06.351Z,72.35
2018-09-18T22:49:35.883Z,72.85
2018-09-18T22:52:06.568Z,71.75
2018-09-18T22:54:35.958Z,72.49
2018-09-18T22:57:06.626Z,72.16
2018-09-18T22:59:36.040Z,72.47
2018-09-18T23:02:06.030Z,71.90
2018-09-18T23:04:35.435Z,71.97
2018-09-18T23:07:04.813Z,72.53
2018-09-18T23:09:34.173Z,71.74
2018-09-18T23:12:03.543Z,72.01
2018-09-18T23:14:32.906Z,72.74
2018-09-18T23:17:02.332Z,72.61
2018-09-18T23:19:31.732Z,72.23
2018-09-18T23:22:01.265Z,72.36
2018-09-18T23:24:30.692Z,72.67
2018-09-18T23:27:00.867Z,71.72
2018-09-18T23:29:30.321Z,72.67
2018-09-18T23:31:59.787Z,72.04
2018-09-18T23:34:29.420Z,72.16
2018-09-18T23:36:58.750Z,72.69
2018-09-18T23:39:35.703Z,72.26
2018-09-18T23:42:14.319Z,72.30
2018-09-18T23:44:54.032Z,72.73
2018-09-18T23:47:30.683Z,72.30
2018-09-18T23:50:08.234Z,72.58
2018-09-18T23:52:46.077Z,71.76
2018-09-18T23:55:24.065Z,71.96
2018-09-18T23:57:59.327Z,72.65
